createdAt,value
2019-05-28T00:00:40.925Z,14.27
2019-05-28T00:03:11.719Z,13.10
2019-05-28T00:05:43.516Z,13.03
2019-05-28T00:08:14.275Z,15.03
2019-05-28T00:10:45.447Z,16.63
2019-05-28T00:13:16.292Z,19.17
2019-05-28T00:15:47.730Z,18.43
2019-05-28T00:18:19.377Z,18.17
2019-05-28T00:20:50.318Z,16.40
2019-05-28T00:23:21.592Z,17.23
2019-05-28T00:25:52.135Z,16.33
2019-05-28T00:28:23.113Z,18.00
2019-05-28T00:30:54.636Z,19.13
2019-05-28T00:33:26.052Z,16.40
2019-05-28T00:35:57.531Z,22.70
2019-05-28T00:38:29.102Z,24.50
2019-05-28T00:41:00.294Z,22.00
2019-05-28T00:43:31.152Z,20.43
2019-05-28T00:46:02.387Z,19.83
2019-05-28T00:48:33.244Z,22.83
2019-05-28T00:51:03.919Z,19.73
2019-05-28T00:53:35.161Z,20.37
2019-05-28T00:56:06.882Z,20.40
2019-05-28T00:58:38.831Z,19.70
2019-05-28T02:02:19.918Z,19.67
2019-05-28T02:04:51.925Z,20.33
2019-05-28T02:07:22.996Z,18.17
2019-05-28T02:09:54.455Z,20.00
2019-05-28T02:12:25.503Z,18.90
2019-05-28T02:14:56.203Z,19.10
2019-05-28T02:17:27.554Z,20.37
2019-05-28T02:19:58.924Z,19.03
2019-05-28T02:22:30.138Z,20.20
2019-05-28T02:25:01.825Z,18.67
2019-05-28T02:27:33.586Z,19.37
2019-05-28T02:30:04.540Z,18.13
2019-05-28T02:32:35.485Z,18.00
2019-05-28T02:35:07.079Z,16.77
2019-05-28T02:37:38.024Z,19.27
2019-05-28T02:40:10.166Z,21.70
2019-05-28T02:42:41.571Z,21.43
2019-05-28T02:45:13.127Z,20.80
2019-05-28T02:47:44.469Z,21.27
2019-05-28T02:50:17.656Z,17.80
2019-05-28T02:52:49.116Z,20.40
2019-05-28T02:55:39.809Z,19.23
2019-05-28T02:58:11.777Z,18.30
2019-05-28T03:00:44.836Z,17.97
2019-05-28T03:03:17.145Z,16.97
2019-05-28T03:05:50.992Z,18.03
2019-05-28T03:08:24.313Z,19.43
2019-05-28T03:11:03.166Z,18.93
2019-05-28T03:13:28.282Z,20.93
2019-05-28T03:16:01.556Z,17.03
2019-05-28T03:18:37.712Z,19.40
2019-05-28T03:21:09.822Z,20.80
2019-05-28T03:23:43.362Z,20.13
2019-05-28T03:26:14.940Z,19.70
2019-05-28T03:28:46.409Z,20.07
2019-05-28T03:31:17.523Z,19.40
2019-05-28T03:33:48.675Z,20.33
2019-05-28T03:36:21.689Z,19.90
2019-05-28T03:38:53.357Z,21.33
2019-05-28T03:41:24.354Z,20.77
2019-05-28T03:43:55.408Z,19.63
2019-05-28T03:46:26.531Z,22.00
2019-05-28T03:48:57.572Z,20.83
2019-05-28T03:51:28.924Z,21.97
2019-05-28T03:54:00.405Z,21.27
2019-05-28T03:56:32.028Z,25.33
2019-05-28T03:59:03.104Z,21.60
2019-05-28T04:01:34.799Z,24.80
2019-05-28T04:04:05.649Z,25.33
2019-05-28T04:06:36.328Z,24.57
2019-05-28T04:09:09.287Z,23.20
2019-05-28T04:11:44.773Z,22.03
2019-05-28T04:14:14.057Z,19.93
2019-05-28T04:16:45.857Z,20.30
2019-05-28T04:19:17.280Z,20.30
2019-05-28T04:21:48.931Z,18.63
2019-05-28T04:24:19.664Z,18.80
2019-05-28T04:26:51.013Z,17.67
2019-05-28T04:29:22.449Z,18.47
2019-05-28T04:31:53.904Z,16.80
2019-05-28T04:34:25.956Z,17.10
2019-05-28T04:36:57.367Z,17.97
2019-05-28T04:39:28.936Z,19.13
2019-05-28T04:42:01.055Z,22.17
2019-05-28T04:44:32.376Z,20.27
2019-05-28T04:47:07.690Z,18.93
2019-05-28T04:49:38.039Z,18.13
2019-05-28T04:52:08.901Z,20.87
2019-05-28T04:54:40.312Z,19.80
2019-05-28T04:57:11.769Z,20.10
2019-05-28T04:59:43.565Z,19.07
2019-05-28T05:02:14.568Z,22.93
2019-05-28T05:04:45.671Z,23.37
2019-05-28T05:07:17.227Z,22.23
2019-05-28T05:09:47.968Z,21.90
2019-05-28T05:12:19.464Z,19.47
2019-05-28T05:14:50.483Z,21.07
2019-05-28T05:17:21.210Z,20.60
2019-05-28T05:19:53.125Z,20.73
2019-05-28T05:22:25.108Z,21.83
2019-05-28T05:24:56.885Z,23.20
2019-05-28T05:27:28.661Z,24.47
2019-05-28T05:30:00.941Z,24.37
2019-05-28T05:32:32.031Z,26.57
2019-05-28T05:35:03.800Z,29.17
2019-05-28T05:37:35.274Z,27.40
2019-05-28T05:40:08.177Z,29.83
2019-05-28T05:42:39.239Z,31.40
2019-05-28T05:45:10.949Z,31.43
2019-05-28T05:47:43.350Z,30.23
2019-05-28T05:50:14.595Z,29.60
2019-05-28T05:52:45.721Z,34.33
2019-05-28T05:55:17.722Z,31.50
2019-05-28T05:57:49.565Z,30.77
2019-05-28T06:00:21.524Z,34.40
2019-05-28T06:02:52.993Z,29.70
2019-05-28T06:05:24.419Z,32.67
2019-05-28T06:07:56.025Z,32.37
2019-05-28T06:10:27.483Z,33.43
2019-05-28T06:12:58.281Z,30.80
2019-05-28T06:15:29.746Z,31.83
2019-05-28T06:18:02.283Z,31.83
2019-05-28T06:20:33.509Z,34.07
2019-05-28T06:23:04.828Z,29.83
2019-05-28T06:25:43.075Z,27.53
2019-05-28T06:28:14.513Z,28.80
2019-05-28T06:30:45.989Z,28.23
2019-05-28T06:33:17.771Z,28.00
2019-05-28T06:35:49.376Z,32.83
2019-05-28T06:38:21.150Z,31.50
2019-05-28T06:40:52.592Z,28.17
2019-05-28T06:43:24.060Z,30.47
2019-05-28T06:45:56.214Z,28.53
2019-05-28T06:48:27.455Z,29.23
2019-05-28T06:50:58.897Z,28.40
2019-05-28T06:53:30.385Z,28.70
2019-05-28T06:56:01.690Z,29.87
2019-05-28T06:58:39.539Z,28.37
2019-05-28T07:01:05.958Z,30.17
2019-05-28T07:03:37.511Z,32.77
2019-05-28T07:06:09.030Z,31.00
2019-05-28T07:08:40.416Z,35.03
2019-05-28T07:11:12.052Z,32.07
2019-05-28T07:13:44.766Z,28.63
2019-05-28T07:16:16.096Z,32.30
2019-05-28T07:18:47.944Z,28.30
2019-05-28T07:21:19.654Z,29.77
2019-05-28T07:23:51.048Z,29.60
2019-05-28T07:26:22.190Z,30.20
2019-05-28T07:28:53.960Z,28.23
2019-05-28T07:31:25.050Z,29.23
2019-05-28T07:33:56.627Z,29.10
2019-05-28T07:36:28.320Z,29.80
2019-05-28T07:38:59.747Z,30.33
2019-05-28T07:41:30.853Z,29.20
2019-05-28T07:44:02.533Z,26.37
2019-05-28T07:46:33.998Z,28.03
2019-05-28T07:49:05.547Z,30.10
2019-05-28T07:51:37.237Z,28.20
2019-05-28T07:54:08.834Z,31.43
2019-05-28T07:56:40.853Z,29.93
2019-05-28T07:59:11.535Z,29.57
2019-05-28T08:01:43.183Z,29.70
2019-05-28T08:04:16.762Z,48.50
2019-05-28T08:06:54.635Z,32.67
2019-05-28T08:09:21.897Z,30.83
2019-05-28T08:11:53.645Z,29.77
2019-05-28T08:14:26.576Z,28.70
2019-05-28T08:16:57.437Z,28.90
2019-05-28T08:19:28.547Z,32.77
2019-05-28T08:22:00.587Z,29.13
2019-05-28T08:24:32.411Z,30.20
2019-05-28T08:27:03.861Z,30.47
2019-05-28T08:29:34.660Z,31.67
2019-05-28T08:32:05.799Z,34.23
2019-05-28T08:34:36.316Z,30.77
2019-05-28T08:37:07.865Z,27.80
2019-05-28T08:39:39.436Z,30.30
2019-05-28T08:42:10.711Z,29.47
2019-05-28T08:44:42.491Z,38.03
2019-05-28T08:47:14.152Z,36.83
2019-05-28T08:49:45.771Z,26.67
2019-05-28T08:52:16.891Z,24.00
2019-05-28T08:54:51.177Z,26.47
2019-05-28T08:57:21.786Z,26.40
2019-05-28T08:59:52.925Z,25.90
2019-05-28T09:02:28.336Z,26.20
2019-05-28T09:04:57.467Z,26.57
2019-05-28T09:07:29.217Z,21.87
2019-05-28T09:10:00.248Z,22.10
2019-05-28T09:12:31.107Z,20.50
2019-05-28T09:15:02.438Z,22.07
2019-05-28T09:17:33.231Z,22.13
2019-05-28T09:20:04.043Z,20.43
2019-05-28T09:22:34.805Z,19.33
2019-05-28T09:25:06.269Z,20.43
2019-05-28T09:27:37.199Z,20.53
2019-05-28T09:30:09.411Z,21.97
2019-05-28T09:32:39.952Z,20.93
2019-05-28T09:35:11.054Z,21.97
2019-05-28T09:37:41.867Z,20.40
2019-05-28T09:40:17.389Z,19.87
2019-05-28T09:42:49.347Z,20.63
2019-05-28T09:45:22.784Z,19.80
2019-05-28T09:47:55.289Z,20.90
2019-05-28T09:50:31.095Z,19.70
2019-05-28T09:52:59.479Z,18.30
2019-05-28T09:55:31.059Z,18.80
2019-05-28T09:58:01.644Z,18.07
2019-05-28T10:00:36.609Z,19.47
2019-05-28T10:03:08.429Z,16.97
2019-05-28T10:05:39.542Z,15.10
2019-05-28T10:08:11.400Z,16.47
2019-05-28T10:10:42.556Z,18.13
2019-05-28T10:13:13.696Z,16.17
2019-05-28T10:15:44.929Z,14.73
2019-05-28T10:18:16.096Z,13.40
2019-05-28T10:20:47.239Z,12.47
2019-05-28T10:23:18.814Z,13.80
2019-05-28T10:25:49.427Z,14.00
2019-05-28T10:28:21.456Z,13.93
2019-05-28T10:30:53.032Z,13.43
2019-05-28T10:33:26.439Z,12.83
2019-05-28T10:35:57.302Z,11.33
2019-05-28T10:38:28.028Z,14.20
2019-05-28T10:40:58.136Z,11.03
2019-05-28T10:43:29.217Z,11.83
2019-05-28T10:46:00.729Z,12.20
2019-05-28T10:48:31.062Z,11.57
2019-05-28T10:51:01.308Z,10.20
2019-05-28T10:53:32.246Z,9.70
2019-05-28T10:56:03.868Z,10.77
2019-05-28T10:58:35.660Z,11.53
2019-05-28T11:01:06.656Z,10.63
2019-05-28T11:03:38.227Z,9.80
2019-05-28T11:06:09.407Z,9.73
2019-05-28T11:08:40.160Z,10.33
2019-05-28T11:11:11.310Z,8.63
2019-05-28T11:13:52.712Z,9.10
2019-05-28T11:16:15.400Z,8.73
2019-05-28T11:18:46.892Z,8.30
2019-05-28T11:21:18.075Z,8.27
2019-05-28T11:23:48.925Z,8.33
2019-05-28T11:26:19.942Z,8.70
2019-05-28T11:28:50.204Z,9.07
2019-05-28T11:31:20.191Z,11.20
2019-05-28T11:33:50.807Z,11.80
2019-05-28T11:36:21.551Z,11.30
2019-05-28T11:38:51.640Z,11.43
2019-05-28T11:41:22.449Z,12.60
2019-05-28T11:43:53.031Z,11.67
2019-05-28T11:46:23.678Z,11.33
2019-05-28T11:48:55.052Z,11.60
2019-05-28T11:51:26.597Z,12.80
2019-05-28T11:53:58.739Z,11.03
2019-05-28T11:56:29.871Z,12.63
2019-05-28T11:59:01.848Z,12.23
2019-05-28T12:01:34.924Z,11.67
2019-05-28T12:04:04.231Z,11.77
2019-05-28T12:06:38.066Z,12.33
2019-05-28T12:09:07.259Z,11.73
2019-05-28T12:11:37.366Z,12.03
2019-05-28T12:14:07.518Z,11.33
2019-05-28T12:16:37.997Z,11.53
2019-05-28T12:19:09.611Z,11.37
2019-05-28T12:21:41.329Z,12.30
2019-05-28T12:24:11.928Z,10.93
2019-05-28T12:26:42.542Z,10.47
2019-05-28T12:29:13.255Z,9.40
2019-05-28T12:31:43.865Z,10.90
2019-05-28T12:34:14.423Z,11.13
2019-05-28T12:36:45.238Z,11.50
2019-05-28T12:39:15.123Z,11.23
2019-05-28T12:41:59.101Z,11.40
2019-05-28T12:44:17.703Z,9.73
2019-05-28T12:46:48.626Z,11.47
2019-05-28T12:49:19.096Z,10.77
2019-05-28T12:51:49.712Z,10.17
2019-05-28T12:54:20.459Z,11.50
2019-05-28T12:56:50.832Z,11.07
2019-05-28T12:59:21.528Z,9.43
2019-05-28T13:01:53.356Z,8.43
2019-05-28T13:04:23.239Z,9.07
2019-05-28T13:06:53.521Z,8.20
2019-05-28T13:09:24.361Z,9.00
2019-05-28T13:11:54.697Z,8.27
2019-05-28T13:14:26.083Z,8.27
2019-05-28T13:16:56.961Z,8.33
2019-05-28T13:19:27.585Z,7.83
2019-05-28T13:21:58.168Z,7.23
2019-05-28T13:24:28.751Z,6.70
2019-05-28T13:27:14.990Z,7.67
2019-05-28T13:29:31.519Z,7.90
2019-05-28T13:32:07.771Z,7.77
2019-05-28T13:34:34.697Z,7.30
2019-05-28T13:37:04.985Z,7.50
2019-05-28T13:39:35.961Z,7.13
2019-05-28T13:42:06.542Z,7.33
2019-05-28T13:44:37.296Z,6.23
2019-05-28T13:47:07.881Z,6.10
2019-05-28T13:49:38.425Z,7.37
2019-05-28T13:52:12.396Z,6.47
2019-05-28T13:54:43.524Z,7.40
2019-05-28T13:57:14.256Z,7.37
2019-05-28T13:59:45.776Z,8.90
2019-05-28T14:02:16.818Z,4.70
2019-05-28T14:04:47.956Z,5.83
2019-05-28T14:07:19.817Z,5.10
2019-05-28T14:09:51.395Z,3.73
2019-05-28T14:12:22.543Z,3.00
2019-05-28T14:14:54.327Z,3.10
2019-05-28T14:17:25.642Z,2.50
2019-05-28T14:19:55.852Z,2.57
2019-05-28T14:22:34.149Z,3.10
2019-05-28T14:24:58.405Z,2.77
2019-05-28T14:27:28.905Z,3.57
2019-05-28T14:30:00.592Z,2.20
2019-05-28T14:32:31.571Z,2.57
2019-05-28T14:35:02.198Z,2.60
2019-05-28T14:37:32.733Z,2.70
2019-05-28T14:40:02.640Z,2.47
2019-05-28T14:42:33.037Z,2.37
2019-05-28T14:45:03.366Z,2.87
2019-05-28T14:47:34.253Z,2.53
2019-05-28T14:50:06.248Z,3.70
2019-05-28T14:52:38.217Z,3.10
2019-05-28T14:55:21.763Z,2.97
2019-05-28T14:57:52.598Z,3.00
2019-05-28T15:00:23.771Z,2.33
2019-05-28T15:02:54.463Z,3.20
2019-05-28T15:05:24.526Z,4.00
2019-05-28T15:07:55.921Z,2.60
2019-05-28T15:10:28.140Z,2.50
2019-05-28T15:13:00.472Z,2.20
2019-05-28T15:15:36.264Z,1.87
2019-05-28T15:18:05.131Z,2.00
2019-05-28T15:20:36.704Z,2.63
2019-05-28T15:23:08.566Z,2.10
2019-05-28T15:25:39.755Z,2.30
2019-05-28T15:28:11.570Z,2.17
2019-05-28T15:30:44.159Z,5.57
2019-05-28T15:33:15.993Z,4.23
2019-05-28T15:35:48.402Z,4.90
2019-05-28T15:38:19.613Z,4.47
2019-05-28T15:40:51.199Z,4.93
2019-05-28T15:43:22.732Z,3.73
2019-05-28T15:45:53.628Z,4.13
2019-05-28T15:48:25.255Z,4.20
2019-05-28T15:50:57.108Z,3.70
2019-05-28T15:53:28.671Z,4.13
2019-05-28T15:56:00.644Z,4.17
2019-05-28T15:58:31.781Z,3.60
2019-05-28T16:01:07.866Z,3.77
2019-05-28T16:03:39.518Z,4.13
2019-05-28T16:06:12.102Z,3.80
2019-05-28T16:08:56.231Z,3.97
2019-05-28T16:11:27.711Z,3.30
2019-05-28T16:14:00.296Z,3.50
2019-05-28T16:16:31.483Z,3.10
2019-05-28T16:19:07.118Z,4.00
2019-05-28T16:21:38.707Z,3.43
2019-05-28T16:24:10.261Z,3.13
2019-05-28T16:26:41.462Z,6.57
2019-05-28T16:29:13.329Z,4.23
2019-05-28T16:31:44.836Z,3.70
2019-05-28T16:34:16.049Z,3.67
2019-05-28T16:36:47.733Z,3.40
2019-05-28T16:39:19.543Z,3.53
2019-05-28T16:41:50.975Z,3.67
2019-05-28T16:44:22.519Z,3.87
2019-05-28T16:47:15.427Z,3.70
2019-05-28T16:49:30.779Z,3.40
2019-05-28T16:52:02.684Z,2.93
2019-05-28T16:54:35.266Z,2.83
2019-05-28T16:57:07.651Z,2.83
2019-05-28T16:59:39.053Z,3.37
2019-05-28T17:02:11.018Z,2.90
2019-05-28T17:04:43.042Z,3.40
2019-05-28T17:07:14.912Z,3.13
2019-05-28T17:09:47.046Z,4.40
2019-05-28T17:12:19.027Z,3.80
2019-05-28T17:14:49.639Z,3.07
2019-05-28T17:17:20.653Z,2.33
2019-05-28T17:19:51.639Z,2.33
2019-05-28T17:22:22.842Z,2.70
2019-05-28T17:24:55.025Z,3.00
2019-05-28T17:27:27.331Z,2.63
2019-05-28T17:30:15.907Z,3.07
2019-05-28T17:32:31.048Z,3.10
2019-05-28T17:35:03.392Z,3.23
2019-05-28T17:37:35.390Z,3.23
2019-05-28T17:40:08.164Z,2.57
2019-05-28T17:42:40.311Z,3.57
2019-05-28T17:45:11.682Z,4.00
2019-05-28T17:47:44.474Z,4.20
2019-05-28T17:50:16.771Z,3.17
2019-05-28T17:52:51.841Z,3.13
2019-05-28T17:55:23.656Z,3.30
2019-05-28T17:57:56.421Z,3.67
2019-05-28T18:00:28.904Z,3.30
2019-05-28T18:03:00.893Z,3.07
2019-05-28T18:05:32.785Z,3.03
2019-05-28T18:08:04.255Z,3.17
2019-05-28T18:10:36.747Z,2.90
2019-05-28T18:13:08.128Z,3.37
2019-05-28T18:15:40.350Z,4.10
2019-05-28T18:18:12.694Z,3.93
2019-05-28T18:20:44.261Z,3.63
2019-05-28T18:23:17.217Z,3.50
2019-05-28T18:25:52.062Z,2.77
2019-05-28T18:28:24.611Z,2.83
2019-05-28T18:30:57.459Z,3.07
2019-05-28T18:33:30.934Z,2.80
2019-05-28T18:36:03.588Z,2.73
2019-05-28T18:38:43.292Z,2.63
2019-05-28T18:41:21.173Z,3.50
2019-05-28T18:43:44.683Z,3.03
2019-05-28T18:46:15.632Z,3.77
2019-05-28T18:48:46.470Z,3.13
2019-05-28T18:51:17.320Z,3.47
2019-05-28T18:53:48.273Z,3.83
2019-05-28T18:56:18.836Z,3.73
2019-05-28T18:58:49.397Z,3.27
2019-05-28T19:01:20.399Z,3.37
2019-05-28T19:03:51.847Z,3.73
2019-05-28T19:06:23.863Z,2.90
2019-05-28T19:08:56.091Z,3.07
2019-05-28T19:11:37.329Z,4.50
2019-05-28T19:14:01.243Z,4.20
2019-05-28T19:16:33.576Z,3.47
2019-05-28T19:19:05.388Z,2.73
2019-05-28T19:21:37.051Z,3.37
2019-05-28T19:24:08.471Z,3.10
2019-05-28T19:26:40.153Z,2.90
2019-05-28T19:29:11.652Z,2.93
2019-05-28T19:31:43.188Z,4.40
2019-05-28T19:34:15.512Z,4.73
2019-05-28T19:36:49.504Z,3.63
2019-05-28T19:39:24.725Z,3.37
2019-05-28T19:41:56.061Z,3.03
2019-05-28T19:44:27.579Z,2.80
2019-05-28T19:47:01.472Z,3.47
2019-05-28T19:49:33.392Z,3.37
2019-05-28T19:52:05.185Z,4.10
2019-05-28T19:54:38.621Z,4.17
2019-05-28T19:57:11.040Z,4.30
2019-05-28T19:59:41.468Z,3.23
2019-05-28T20:02:12.307Z,3.67
2019-05-28T20:04:42.050Z,3.77
2019-05-28T20:07:12.029Z,3.50
2019-05-28T20:09:47.070Z,4.97
2019-05-28T20:12:17.406Z,5.07
2019-05-28T20:14:47.413Z,5.27
2019-05-28T20:17:19.272Z,5.57
2019-05-28T20:19:51.351Z,5.47
2019-05-28T20:22:21.695Z,6.23
2019-05-28T20:24:54.185Z,6.33
2019-05-28T20:27:24.276Z,5.20
2019-05-28T20:29:55.003Z,6.97
2019-05-28T20:32:34.440Z,5.53
2019-05-28T20:35:05.565Z,5.47
2019-05-28T20:37:36.030Z,5.23
2019-05-28T20:40:08.044Z,5.70
2019-05-28T20:42:38.587Z,5.27
2019-05-28T20:45:08.844Z,4.70
2019-05-28T20:47:41.700Z,4.07
2019-05-28T20:50:12.212Z,3.83
2019-05-28T20:52:42.963Z,3.70
2019-05-28T20:55:14.417Z,3.47
2019-05-28T20:57:45.196Z,3.73
2019-05-28T21:00:15.988Z,4.00
2019-05-28T21:02:47.554Z,4.67
2019-05-28T21:05:17.852Z,7.90
2019-05-28T21:07:48.412Z,7.53
2019-05-28T21:10:18.853Z,7.87
2019-05-28T21:12:48.792Z,8.00
2019-05-28T21:15:19.476Z,8.40
2019-05-28T21:17:51.159Z,8.40
2019-05-28T21:20:21.448Z,8.93
2019-05-28T21:22:51.859Z,9.07
2019-05-28T21:25:22.191Z,8.57
2019-05-28T21:27:52.845Z,9.97
2019-05-28T21:30:23.224Z,10.80
2019-05-28T21:32:54.477Z,9.73
2019-05-28T21:35:25.206Z,10.10
2019-05-28T21:37:55.544Z,10.33
2019-05-28T21:40:25.895Z,8.87
2019-05-28T21:43:02.405Z,8.87
2019-05-28T21:45:28.201Z,8.57
2019-05-28T21:47:58.705Z,9.47
2019-05-28T21:50:28.696Z,8.97
2019-05-28T21:52:59.115Z,7.07
2019-05-28T21:55:29.352Z,7.00
2019-05-28T21:58:00.061Z,5.57
2019-05-28T22:00:45.585Z,4.07
2019-05-28T22:03:17.447Z,5.77
2019-05-28T22:05:47.653Z,5.40
2019-05-28T22:08:18.462Z,5.23
2019-05-28T22:10:49.016Z,4.67
2019-05-28T22:13:22.444Z,5.47
2019-05-28T22:15:52.246Z,4.03
2019-05-28T22:18:24.222Z,4.00
2019-05-28T22:20:54.564Z,3.53
2019-05-28T22:23:24.748Z,3.90
2019-05-28T22:25:56.390Z,3.20
2019-05-28T22:28:26.735Z,4.40
2019-05-28T22:30:57.707Z,4.50
2019-05-28T22:33:29.716Z,3.77
2019-05-28T22:36:01.305Z,4.17
2019-05-28T22:38:31.757Z,4.87
2019-05-28T22:41:02.491Z,4.07
2019-05-28T22:43:33.286Z,4.43
2019-05-28T22:46:03.851Z,3.70
2019-05-28T22:48:34.544Z,4.60
2019-05-28T22:51:05.595Z,3.93
2019-05-28T22:53:35.524Z,4.07
2019-05-28T22:56:06.856Z,4.60
2019-05-28T22:58:37.174Z,3.90
2019-05-28T23:01:08.767Z,4.37
2019-05-28T23:03:39.443Z,3.13
2019-05-28T23:06:10.015Z,3.60
2019-05-28T23:08:40.363Z,3.40
2019-05-28T23:11:35.002Z,4.10
2019-05-28T23:14:06.100Z,4.17
2019-05-28T23:16:36.684Z,3.57
2019-05-28T23:19:07.221Z,4.10
2019-05-28T23:21:38.168Z,3.33
2019-05-28T23:24:09.340Z,3.97
2019-05-28T23:26:40.024Z,3.50
2019-05-28T23:29:11.910Z,3.93
2019-05-28T23:31:42.401Z,3.37
2019-05-28T23:34:12.871Z,3.20
2019-05-28T23:36:43.296Z,3.80
2019-05-28T23:39:14.414Z,3.03
2019-05-28T23:41:44.728Z,3.47
2019-05-28T23:44:14.939Z,3.23
2019-05-28T23:46:45.838Z,3.50
2019-05-28T23:49:16.290Z,3.00
2019-05-28T23:51:46.161Z,3.47
2019-05-28T23:54:18.139Z,3.87
2019-05-28T23:56:49.096Z,3.53
2019-05-28T23:59:19.376Z,3.40
